Norman Y. Mineta San Jose International Airport
KSJC : now visible

Airfield :











YOU CAN JOIN US ON...

 
LOGIN :

Register | Disclaimer

   EN    FR    IT 

 









Legend :    VFR   Marginal VFR   IFR   Intensive IFR   Very Intensive IFR
Visi :
Ceiling :
>= 8 km
>= 3000ft
5 to 8 km
1000 to 3000 ft
1500m to 5 km
500 to 1000 ft
800 to 1500m
200 to 500 ft
< 800m
< 200 ft
Symbols :   Thunderstorms  Fog  Heavy snow  Heavy precipitations  Wind > 20 kt







- Airport Elevation : 62 ft
- IATA code : SJC


KSJC - Norman Y. Mineta San Jose International

CURRENT METAR :
  • 252053Z 19013G19KT 10SM FEW021 BKN050 OVC100 19/09 A3008 RMK AO2 SLP184 T01940089 58015

EXPIRED METARs :
  • 251953Z 17013KT 10SM FEW025 BKN050 OVC100 18/05 A3009 RMK AO2 SLP190 T01780050
  • 251853Z 16012KT 10SM FEW028 BKN050 OVC100 17/03 A3012 RMK AO2 SLP197 T01720028

TAF KSJC
Valid from the 25 at 18:00 until the 26 at 18:00 UTC


251730Z 2518/2618 14009KT P6SM VCSH FEW025 BKN040 OVC080
FM252100 17011KT P6SM -SHRA SCT025 BKN035 OVC050
FM260000 20008KT P6SM -SHRA SCT022 BKN030 OVC040
TEMPO 2600/2604 4SM -RA BKN022 OVC030
FM260600 VRB03KT P6SM VCSH SCT020 BKN030 BKN040
KZOA FIR / North America



MET'MAP, your aeronautical weather chart ! - Copyright ORBIFLY December 2007 - Disclaimer

ORBIFLY MET'MAP TEAM :

Programming & Development : Alexandra Zaïnal
Concept & Development : Baudouin d'Aumeries
Co-Development & Prog : Marc-Olivier Méhu
Technical & hardware support : Manuel Goepfert

Contact : metmap@orbifly.com




SOURCES & CREDITS :

   NOAA       Earth
Advisory